createdAt,value
2018-02-09T00:00:22.705Z,91.40
2018-02-09T00:02:50.219Z,91.30
2018-02-09T00:05:17.736Z,91.30
2018-02-09T00:07:46.024Z,91.60
2018-02-09T00:10:14.322Z,91.40
2018-02-09T00:12:41.837Z,91.40
2018-02-09T00:15:10.133Z,91.30
2018-02-09T00:17:38.410Z,91.00
2018-02-09T00:20:06.701Z,91.00
2018-02-09T00:22:46.066Z,90.90
2018-02-09T00:25:13.580Z,90.90
2018-02-09T00:27:41.848Z,91.00
2018-02-09T00:30:10.128Z,91.00
2018-02-09T00:32:38.401Z,91.10
2018-02-09T00:35:06.684Z,91.20
2018-02-09T00:37:34.958Z,91.20
2018-02-09T00:40:03.267Z,91.20
2018-02-09T00:42:30.764Z,91.20
2018-02-09T00:44:58.267Z,91.30
2018-02-09T00:47:25.795Z,91.30
2018-02-09T00:49:54.091Z,91.40
2018-02-09T00:52:22.381Z,91.30
2018-02-09T00:54:49.890Z,91.30
2018-02-09T00:57:17.405Z,91.30
2018-02-09T00:59:44.937Z,91.40
2018-02-09T01:02:13.218Z,91.50
2018-02-09T01:04:41.494Z,91.50
2018-02-09T01:07:09.836Z,91.40
2018-02-09T01:09:37.330Z,91.40
2018-02-09T01:12:05.635Z,91.50
2018-02-09T01:14:33.140Z,91.50
2018-02-09T01:17:00.666Z,91.50
2018-02-09T01:19:28.155Z,91.60
2018-02-09T01:21:55.678Z,91.70
2018-02-09T01:24:23.194Z,91.70
2018-02-09T01:26:51.501Z,91.30
2018-02-09T01:29:19.001Z,91.30
2018-02-09T01:31:46.520Z,91.50
2018-02-09T01:34:14.059Z,91.50
2018-02-09T01:36:41.569Z,91.50
2018-02-09T01:39:09.098Z,91.50
2018-02-09T01:41:36.606Z,91.50
2018-02-09T01:44:04.919Z,91.50
2018-02-09T01:46:32.439Z,91.50
2018-02-09T01:48:59.970Z,91.50
2018-02-09T01:51:27.499Z,91.70
2018-02-09T01:53:55.013Z,91.80
2018-02-09T01:56:22.555Z,91.90
2018-02-09T01:58:50.073Z,91.80
2018-02-09T02:01:17.597Z,91.50
2018-02-09T02:03:45.092Z,91.60
2018-02-09T02:06:12.657Z,91.40
2018-02-09T02:08:40.165Z,91.40
2018-02-09T02:11:07.703Z,91.40
2018-02-09T02:13:35.224Z,90.90
2018-02-09T02:16:02.772Z,90.90
2018-02-09T02:18:31.037Z,91.10
2018-02-09T02:20:59.318Z,91.20
2018-02-09T02:23:27.616Z,91.20
2018-02-09T02:25:55.116Z,91.40
2018-02-09T02:28:22.650Z,91.30
2018-02-09T02:30:50.167Z,91.40
2018-02-09T02:33:19.468Z,91.40
2018-02-09T02:35:47.736Z,91.10
2018-02-09T02:38:16.042Z,90.70
2018-02-09T02:40:43.572Z,90.70
2018-02-09T02:43:11.855Z,90.80
2018-02-09T02:45:40.167Z,90.80
2018-02-09T02:48:07.679Z,90.80
2018-02-09T02:50:35.206Z,91.00
2018-02-09T02:53:02.709Z,91.10
2018-02-09T02:55:30.255Z,91.30
2018-02-09T02:57:57.780Z,91.30
2018-02-09T03:00:25.292Z,91.30
2018-02-09T03:02:53.581Z,91.30
2018-02-09T03:05:21.125Z,91.30
2018-02-09T03:07:49.403Z,91.60
2018-02-09T03:10:17.681Z,91.40
2018-02-09T03:12:45.960Z,91.40
2018-02-09T03:15:14.233Z,91.30
2018-02-09T03:17:42.521Z,91.30
2018-02-09T03:20:10.033Z,91.30
2018-02-09T03:22:37.566Z,91.40
2018-02-09T03:25:05.069Z,91.50
2018-02-09T03:27:33.371Z,91.50
2018-02-09T03:30:00.897Z,91.50
2018-02-09T03:32:28.408Z,91.60
2018-02-09T03:34:55.933Z,91.60
2018-02-09T03:37:24.211Z,91.70
2018-02-09T03:39:52.492Z,91.80
2018-02-09T03:42:20.755Z,91.80
2018-02-09T03:44:49.060Z,91.70
2018-02-09T03:47:16.576Z,91.70
2018-02-09T03:49:44.101Z,91.70
2018-02-09T03:52:11.609Z,91.70
2018-02-09T03:54:39.922Z,91.60
2018-02-09T03:57:07.444Z,91.60
2018-02-09T03:59:35.736Z,91.70
2018-02-09T04:02:03.278Z,91.60
2018-02-09T04:04:31.572Z,91.80
2018-02-09T04:06:59.110Z,91.80
2018-02-09T04:09:27.408Z,91.60
2018-02-09T04:11:54.933Z,91.60
2018-02-09T04:14:22.428Z,91.70
2018-02-09T04:16:49.990Z,91.70
2018-02-09T04:19:17.488Z,91.50
2018-02-09T04:21:44.998Z,91.50
2018-02-09T04:24:12.526Z,91.60
2018-02-09T04:26:40.034Z,91.40
2018-02-09T04:29:07.558Z,91.50
2018-02-09T04:31:35.847Z,91.50
2018-02-09T04:34:04.152Z,91.40
2018-02-09T04:36:31.659Z,91.40
2018-02-09T04:38:59.189Z,91.50
2018-02-09T04:41:26.692Z,91.30
2018-02-09T04:43:54.986Z,91.60
2018-02-09T04:46:22.498Z,91.60
2018-02-09T04:48:50.010Z,91.60
2018-02-09T04:51:17.551Z,91.20
2018-02-09T04:53:45.826Z,90.90
2018-02-09T04:56:14.130Z,90.90
2018-02-09T04:58:41.660Z,90.90
2018-02-09T05:01:10.587Z,91.00
2018-02-09T05:03:38.258Z,91.00
2018-02-09T05:06:07.339Z,91.10
2018-02-09T05:08:36.207Z,91.10
2018-02-09T05:11:04.861Z,91.10
2018-02-09T05:13:33.054Z,91.20
2018-02-09T05:16:00.628Z,91.30
2018-02-09T05:18:28.154Z,90.90
2018-02-09T05:20:55.698Z,91.00
2018-02-09T05:23:23.227Z,91.20
2018-02-09T05:25:50.737Z,91.20
2018-02-09T05:28:18.275Z,91.20
2018-02-09T05:30:45.797Z,91.60
2018-02-09T05:33:13.330Z,91.10
2018-02-09T05:35:41.691Z,91.20
2018-02-09T05:38:09.285Z,91.20
2018-02-09T05:40:36.814Z,91.20
2018-02-09T05:43:05.104Z,91.60
2018-02-09T05:45:33.383Z,91.60
2018-02-09T05:48:01.671Z,91.50
2018-02-09T05:50:29.264Z,91.50
2018-02-09T05:52:56.781Z,91.40
2018-02-09T05:55:24.306Z,91.50
2018-02-09T05:57:52.670Z,91.50
2018-02-09T06:00:20.225Z,91.50
2018-02-09T06:02:47.746Z,91.40
2018-02-09T06:05:15.249Z,91.50
2018-02-09T06:07:42.784Z,91.60
2018-02-09T06:10:10.284Z,91.70
2018-02-09T06:12:37.822Z,91.70
2018-02-09T06:15:05.334Z,91.70
2018-02-09T06:17:32.866Z,91.60
2018-02-09T06:20:00.369Z,91.60
2018-02-09T06:22:27.920Z,91.70
2018-02-09T06:24:55.433Z,91.50
2018-02-09T06:27:22.937Z,91.40
2018-02-09T06:29:50.466Z,91.50
2018-02-09T06:32:18.742Z,91.30
2018-02-09T06:34:47.048Z,91.20
2018-02-09T06:37:14.551Z,91.20
2018-02-09T06:39:42.080Z,91.20
2018-02-09T06:42:09.603Z,91.30
2018-02-09T06:44:37.896Z,91.40
2018-02-09T06:47:05.421Z,91.50
2018-02-09T06:49:32.937Z,91.50
2018-02-09T06:52:00.447Z,91.40
2018-02-09T06:54:28.734Z,91.60
2018-02-09T06:56:57.016Z,91.60
2018-02-09T06:59:25.278Z,91.70
2018-02-09T07:01:53.569Z,91.70
2018-02-09T07:04:21.841Z,91.60
2018-02-09T07:06:50.130Z,91.70
2018-02-09T07:09:17.650Z,91.70
2018-02-09T07:11:45.263Z,91.70
2018-02-09T07:14:12.769Z,91.60
2018-02-09T07:16:40.296Z,91.70
2018-02-09T07:19:07.818Z,91.70
2018-02-09T07:21:35.334Z,91.60
2018-02-09T07:24:02.884Z,91.50
2018-02-09T07:26:30.520Z,91.40
2018-02-09T07:28:58.101Z,91.50
2018-02-09T07:31:25.578Z,91.50
2018-02-09T07:33:53.111Z,91.30
2018-02-09T07:36:20.622Z,91.30
2018-02-09T07:38:48.888Z,90.90
2018-02-09T07:41:17.195Z,90.70
2018-02-09T07:43:44.716Z,90.70
2018-02-09T07:46:12.256Z,90.60
2018-02-09T07:48:39.777Z,90.30
2018-02-09T07:51:07.301Z,90.50
2018-02-09T07:53:35.592Z,90.70
2018-02-09T07:56:03.117Z,90.70
2018-02-09T07:58:30.631Z,91.00
2018-02-09T08:00:58.175Z,90.80
2018-02-09T08:03:25.695Z,90.60
2018-02-09T08:05:53.206Z,90.80
2018-02-09T08:08:20.732Z,90.50
2018-02-09T08:10:49.016Z,90.20
2018-02-09T08:13:17.311Z,90.30
2018-02-09T08:15:44.815Z,90.30
2018-02-09T08:18:12.333Z,89.80
2018-02-09T08:20:39.851Z,89.70
2018-02-09T08:23:08.149Z,90.00
2018-02-09T08:25:37.171Z,90.10
2018-02-09T08:28:04.683Z,90.10
2018-02-09T08:30:32.207Z,90.20
2018-02-09T08:32:59.720Z,89.70
2018-02-09T08:35:27.249Z,88.70
2018-02-09T08:37:54.748Z,88.40
2018-02-09T08:40:22.273Z,88.70
2018-02-09T08:42:49.781Z,87.70
2018-02-09T08:45:17.306Z,87.90
2018-02-09T08:47:45.578Z,86.80
2018-02-09T08:50:13.886Z,86.10
2018-02-09T08:52:41.394Z,86.10
2018-02-09T08:55:08.906Z,86.20
2018-02-09T08:57:36.429Z,86.50
2018-02-09T09:00:05.107Z,84.90
2018-02-09T09:02:32.658Z,84.90
2018-02-09T09:05:00.157Z,85.10
2018-02-09T09:07:27.678Z,83.70
2018-02-09T09:09:55.179Z,83.30
2018-02-09T09:12:22.715Z,84.20
2018-02-09T09:14:50.999Z,85.10
2018-02-09T09:17:18.496Z,85.10
2018-02-09T09:19:46.033Z,85.50
2018-02-09T09:22:13.537Z,83.10
2018-02-09T09:24:41.074Z,82.60
2018-02-09T09:27:08.581Z,83.00
2018-02-09T09:29:36.874Z,83.60
2018-02-09T09:32:04.396Z,83.60
2018-02-09T09:34:31.921Z,82.50
2018-02-09T09:36:59.430Z,82.60
2018-02-09T09:39:27.765Z,81.80
2018-02-09T09:41:55.262Z,81.80
2018-02-09T09:44:23.538Z,81.30
2018-02-09T09:46:51.821Z,80.80
2018-02-09T09:49:20.293Z,80.90
2018-02-09T09:51:48.576Z,80.90
2018-02-09T09:54:16.850Z,80.70
2018-02-09T09:56:45.148Z,80.10
2018-02-09T09:59:12.644Z,80.10
2018-02-09T10:01:40.171Z,79.00
2018-02-09T10:04:07.681Z,78.80
2018-02-09T10:06:35.191Z,77.90
2018-02-09T10:09:02.726Z,78.70
2018-02-09T10:11:31.015Z,78.60
2018-02-09T10:13:58.538Z,78.70
2018-02-09T10:16:26.047Z,78.60
2018-02-09T10:18:53.565Z,79.60
2018-02-09T10:21:21.852Z,79.30
2018-02-09T10:23:50.139Z,80.40
2018-02-09T10:26:18.463Z,79.70
2018-02-09T10:28:45.983Z,79.70
2018-02-09T10:31:13.500Z,80.00
2018-02-09T10:33:41.007Z,78.60
2018-02-09T10:36:08.517Z,79.10
2018-02-09T10:38:36.035Z,78.30
2018-02-09T10:41:03.571Z,79.80
2018-02-09T10:43:31.077Z,78.60
2018-02-09T10:45:58.596Z,76.90
2018-02-09T10:48:26.112Z,77.90
2018-02-09T10:50:53.623Z,78.70
2018-02-09T10:53:21.176Z,78.40
2018-02-09T10:55:49.456Z,78.40
2018-02-09T10:58:16.958Z,78.40
2018-02-09T11:00:50.135Z,78.20
2018-02-09T11:03:17.642Z,78.50
2018-02-09T11:05:45.913Z,78.20
2018-02-09T11:08:14.192Z,77.00
2018-02-09T11:10:47.479Z,76.50
2018-02-09T11:13:15.775Z,77.00
2018-02-09T11:15:43.286Z,77.10
2018-02-09T11:18:10.804Z,76.80
2018-02-09T11:20:38.305Z,77.80
2018-02-09T11:23:05.808Z,77.80
2018-02-09T11:25:33.330Z,76.70
2018-02-09T11:28:00.848Z,77.20
2018-02-09T11:30:28.364Z,76.90
2018-02-09T11:32:56.656Z,76.70
2018-02-09T11:35:24.159Z,76.70
2018-02-09T11:37:51.679Z,76.80
2018-02-09T11:40:19.201Z,76.80
2018-02-09T11:42:46.707Z,75.40
2018-02-09T11:45:14.256Z,76.80
2018-02-09T11:47:41.761Z,76.90
2018-02-09T11:50:09.253Z,76.40
2018-02-09T11:52:37.523Z,75.80
2018-02-09T11:55:05.780Z,75.30
2018-02-09T11:57:33.306Z,75.30
2018-02-09T12:00:00.800Z,76.10
2018-02-09T12:02:28.330Z,76.20
2018-02-09T12:04:55.837Z,74.60
2018-02-09T12:07:24.134Z,75.10
2018-02-09T12:09:51.656Z,75.10
2018-02-09T12:12:19.176Z,75.30
2018-02-09T12:14:46.710Z,75.10
2018-02-09T12:17:14.230Z,75.90
2018-02-09T12:19:41.750Z,76.30
2018-02-09T12:22:09.297Z,75.70
2018-02-09T12:24:36.818Z,77.10
2018-02-09T12:27:05.089Z,76.80
2018-02-09T12:29:33.391Z,77.20
2018-02-09T12:32:00.902Z,76.50
2018-02-09T12:34:29.189Z,77.20
2018-02-09T12:36:56.698Z,77.20
2018-02-09T12:39:24.217Z,76.00
2018-02-09T12:41:52.501Z,77.20
2018-02-09T12:44:20.788Z,77.20
2018-02-09T12:46:49.090Z,77.90
2018-02-09T12:49:16.608Z,77.90
2018-02-09T12:51:44.885Z,75.30
2018-02-09T12:54:13.148Z,75.00
2018-02-09T12:56:40.673Z,75.00
2018-02-09T12:59:08.173Z,76.50
2018-02-09T13:01:35.671Z,76.10
2018-02-09T13:04:03.191Z,75.20
2018-02-09T13:06:31.475Z,77.80
2018-02-09T13:08:59.752Z,75.60
2018-02-09T13:11:28.036Z,76.30
2018-02-09T13:13:56.309Z,77.80
2018-02-09T13:16:24.585Z,77.80
2018-02-09T13:18:52.856Z,76.80
2018-02-09T13:21:21.139Z,77.10
2018-02-09T13:24:01.355Z,77.60
2018-02-09T13:26:28.875Z,77.60
2018-02-09T13:28:59.031Z,76.80
2018-02-09T13:31:26.568Z,77.20
2018-02-09T13:33:54.077Z,76.80
2018-02-09T13:36:33.514Z,77.60
2018-02-09T13:39:01.802Z,76.00
2018-02-09T13:41:30.093Z,76.30
2018-02-09T13:43:57.588Z,76.30
2018-02-09T13:46:25.119Z,75.50
2018-02-09T13:48:52.635Z,76.30
2018-02-09T13:51:20.175Z,77.60
2018-02-09T13:53:48.534Z,77.70
2018-02-09T13:56:16.038Z,78.30
2018-02-09T13:58:44.339Z,77.80
2018-02-09T14:01:11.846Z,77.50
2018-02-09T14:03:39.378Z,77.90
2018-02-09T14:06:06.891Z,76.50
2018-02-09T14:08:35.186Z,77.50
2018-02-09T14:11:03.511Z,78.20
2018-02-09T14:13:31.041Z,78.30
2018-02-09T14:15:58.549Z,78.80
2018-02-09T14:18:26.065Z,78.50
2018-02-09T14:20:53.599Z,78.20
2018-02-09T14:23:21.902Z,78.70
2018-02-09T14:25:49.414Z,78.80
2018-02-09T14:28:17.699Z,78.50
2018-02-09T14:30:45.996Z,79.20
2018-02-09T14:33:13.493Z,79.10
2018-02-09T14:35:41.018Z,79.80
2018-02-09T14:38:08.535Z,79.00
2018-02-09T14:40:36.045Z,79.60
2018-02-09T14:43:03.566Z,80.00
2018-02-09T14:45:31.838Z,80.10
2018-02-09T14:48:00.140Z,80.10
2018-02-09T14:50:27.645Z,80.10
2018-02-09T14:52:55.179Z,80.30
2018-02-09T14:55:22.677Z,81.00
2018-02-09T14:57:50.971Z,81.60
2018-02-09T15:00:19.699Z,81.30
2018-02-09T15:02:47.229Z,81.30
2018-02-09T15:05:15.512Z,80.60
2018-02-09T15:07:43.012Z,80.50
2018-02-09T15:10:10.546Z,80.90
2018-02-09T15:12:38.064Z,81.70
2018-02-09T15:15:06.357Z,82.00
2018-02-09T15:17:34.638Z,81.40
2018-02-09T15:20:02.171Z,81.40
2018-02-09T15:22:29.680Z,81.30
2018-02-09T15:24:57.188Z,80.60
2018-02-09T15:27:24.707Z,79.70
2018-02-09T15:29:52.223Z,80.40
2018-02-09T15:32:20.519Z,80.90
2018-02-09T15:34:48.016Z,81.00
2018-02-09T15:37:15.548Z,81.10
2018-02-09T15:39:43.054Z,81.70
2018-02-09T15:42:10.578Z,82.40
2018-02-09T15:44:38.085Z,81.30
2018-02-09T15:47:06.359Z,81.70
2018-02-09T15:49:34.640Z,82.30
2018-02-09T15:52:02.980Z,82.60
2018-02-09T15:54:30.459Z,82.60
2018-02-09T15:56:57.972Z,82.60
2018-02-09T15:59:25.498Z,82.90
2018-02-09T16:01:53.766Z,83.00
2018-02-09T16:04:22.053Z,82.90
2018-02-09T16:06:50.326Z,82.80
2018-02-09T16:09:18.613Z,82.50
2018-02-09T16:11:46.111Z,82.60
2018-02-09T16:14:14.394Z,83.50
2018-02-09T16:16:41.892Z,84.20
2018-02-09T16:19:10.213Z,84.30
2018-02-09T16:21:37.740Z,84.30
2018-02-09T16:24:05.264Z,84.80
2018-02-09T16:26:32.794Z,84.30
2018-02-09T16:29:00.306Z,84.40
2018-02-09T16:31:28.593Z,83.80
2018-02-09T16:33:56.096Z,83.80
2018-02-09T16:36:23.635Z,83.70
2018-02-09T16:38:51.146Z,83.90
2018-02-09T16:41:19.434Z,84.00
2018-02-09T16:43:47.710Z,83.50
2018-02-09T16:46:15.986Z,83.90
2018-02-09T16:48:44.277Z,83.50
2018-02-09T16:51:11.855Z,83.50
2018-02-09T16:53:39.395Z,84.00
2018-02-09T16:56:06.906Z,84.80
2018-02-09T16:58:34.445Z,84.80
2018-02-09T17:01:01.967Z,84.70
2018-02-09T17:03:29.489Z,85.30
2018-02-09T17:05:57.006Z,84.80
2018-02-09T17:08:24.534Z,84.60
2018-02-09T17:10:52.859Z,85.30
2018-02-09T17:13:20.373Z,85.30
2018-02-09T17:15:48.850Z,84.10
2018-02-09T17:18:17.135Z,84.10
2018-02-09T17:20:44.673Z,84.20
2018-02-09T17:23:12.953Z,84.90
2018-02-09T17:25:41.273Z,85.50
2018-02-09T17:28:08.781Z,85.40
2018-02-09T17:30:36.300Z,85.80
2018-02-09T17:33:03.819Z,86.00
2018-02-09T17:35:32.094Z,83.60
2018-02-09T17:38:00.399Z,84.70
2018-02-09T17:40:27.905Z,84.60
2018-02-09T17:42:55.427Z,84.40
2018-02-09T17:45:22.933Z,84.50
2018-02-09T17:47:51.235Z,84.20
2018-02-09T17:50:18.812Z,84.20
2018-02-09T17:52:47.068Z,85.30
2018-02-09T17:55:14.569Z,85.90
2018-02-09T17:57:42.102Z,85.10
2018-02-09T18:00:09.624Z,85.50
2018-02-09T18:02:37.897Z,85.60
2018-02-09T18:05:06.188Z,85.50
2018-02-09T18:07:33.702Z,85.50
2018-02-09T18:10:01.220Z,85.80
2018-02-09T18:12:28.726Z,86.00
2018-02-09T18:14:56.267Z,85.80
2018-02-09T18:17:34.812Z,86.30
2018-02-09T18:20:02.337Z,86.60
2018-02-09T18:22:29.860Z,86.30
2018-02-09T18:24:58.148Z,85.90
2018-02-09T18:27:25.659Z,85.90
2018-02-09T18:29:53.175Z,86.40
2018-02-09T18:32:20.696Z,86.40
2018-02-09T18:34:48.984Z,86.30
2018-02-09T18:37:17.274Z,86.70
2018-02-09T18:39:44.785Z,86.70
2018-02-09T18:42:12.310Z,87.00
2018-02-09T18:44:39.812Z,87.20
2018-02-09T18:47:07.346Z,86.90
2018-02-09T18:49:35.629Z,86.90
2018-02-09T18:52:03.138Z,86.90
2018-02-09T18:54:30.660Z,86.60
2018-02-09T18:56:58.855Z,86.30
2018-02-09T18:59:26.448Z,85.90
2018-02-09T19:01:54.002Z,85.70
2018-02-09T19:04:22.292Z,86.80
2018-02-09T19:06:49.801Z,86.70
2018-02-09T19:09:18.121Z,87.00
2018-02-09T19:11:45.637Z,87.00
2018-02-09T19:14:13.932Z,87.00
2018-02-09T19:16:42.235Z,86.90
2018-02-09T19:19:09.737Z,86.90
2018-02-09T19:21:37.252Z,87.10
2018-02-09T19:24:04.748Z,87.10
2018-02-09T19:26:32.274Z,87.00
2018-02-09T19:28:59.785Z,86.90
2018-02-09T19:31:28.075Z,87.40
2018-02-09T19:33:56.354Z,87.20
2018-02-09T19:36:24.678Z,87.30
2018-02-09T19:38:52.180Z,87.20
2018-02-09T19:41:20.538Z,87.00
2018-02-09T19:43:48.065Z,87.00
2018-02-09T19:46:15.578Z,86.90
2018-02-09T19:48:43.885Z,87.30
2018-02-09T19:51:11.412Z,87.30
2018-02-09T19:53:39.696Z,87.20
2018-02-09T19:56:08.018Z,87.10
2018-02-09T19:58:35.541Z,87.10
2018-02-09T20:01:03.048Z,87.20
2018-02-09T20:03:30.558Z,87.20
2018-02-09T20:05:58.095Z,87.70
2018-02-09T20:08:26.388Z,87.60
2018-02-09T20:10:53.913Z,87.60
2018-02-09T20:13:21.430Z,87.90
2018-02-09T20:15:48.949Z,87.50
2018-02-09T20:18:20.238Z,87.60
2018-02-09T20:20:47.785Z,87.60
2018-02-09T20:23:15.299Z,88.20
2018-02-09T20:25:42.824Z,88.20
2018-02-09T20:28:10.343Z,88.00
2018-02-09T20:30:37.869Z,88.60
2018-02-09T20:33:05.401Z,88.30
2018-02-09T20:35:32.909Z,88.00
2018-02-09T20:38:01.220Z,88.30
2018-02-09T20:40:28.730Z,88.30
2018-02-09T20:42:56.258Z,88.40
2018-02-09T20:45:23.770Z,88.40
2018-02-09T20:47:51.673Z,88.30
2018-02-09T20:50:20.206Z,88.50
2018-02-09T20:52:48.476Z,88.50
2018-02-09T20:55:16.003Z,88.50
2018-02-09T20:57:43.526Z,87.80
2018-02-09T21:00:11.071Z,87.80
2018-02-09T21:02:39.348Z,88.50
2018-02-09T21:05:07.652Z,88.30
2018-02-09T21:07:35.152Z,88.30
2018-02-09T21:10:02.692Z,88.00
2018-02-09T21:12:30.205Z,88.20
2018-02-09T21:14:57.746Z,88.20
2018-02-09T21:17:26.043Z,88.30
2018-02-09T21:19:53.572Z,88.20
2018-02-09T21:22:21.124Z,88.60
2018-02-09T21:24:48.619Z,88.60
2018-02-09T21:27:16.142Z,88.50
2018-02-09T21:29:43.694Z,88.50
2018-02-09T21:32:11.190Z,88.40
2018-02-09T21:34:38.702Z,88.20
2018-02-09T21:37:06.247Z,88.40
2018-02-09T21:39:33.763Z,88.40
2018-02-09T21:42:02.043Z,88.90
2018-02-09T21:44:29.567Z,88.90
2018-02-09T21:46:57.078Z,88.70
2018-02-09T21:49:24.620Z,88.90
2018-02-09T21:51:52.123Z,88.30
2018-02-09T21:54:19.635Z,87.60
2018-02-09T21:56:47.901Z,87.50
2018-02-09T21:59:16.197Z,87.60
2018-02-09T22:01:43.710Z,87.50
2018-02-09T22:04:11.218Z,87.30
2018-02-09T22:06:38.746Z,87.10
2018-02-09T22:09:06.242Z,86.80
2018-02-09T22:11:33.779Z,87.30
2018-02-09T22:14:01.294Z,87.50
2018-02-09T22:16:29.604Z,87.40
2018-02-09T22:18:57.886Z,87.70
2018-02-09T22:21:26.174Z,87.90
2018-02-09T22:23:53.690Z,87.90
2018-02-09T22:26:21.236Z,88.00
2018-02-09T22:28:48.737Z,88.70
2018-02-09T22:31:17.036Z,88.70
2018-02-09T22:33:44.561Z,88.70
2018-02-09T22:36:13.392Z,88.70
2018-02-09T22:38:42.077Z,88.70
2018-02-09T22:41:09.668Z,88.70
2018-02-09T22:43:37.184Z,88.60
2018-02-09T22:46:04.683Z,88.10
2018-02-09T22:48:32.222Z,87.90
2018-02-09T22:50:59.729Z,88.80
2018-02-09T22:53:28.072Z,89.50
2018-02-09T22:55:55.557Z,89.40
2018-02-09T22:58:23.065Z,88.60
2018-02-09T23:00:52.187Z,88.60
2018-02-09T23:03:19.698Z,89.20
2018-02-09T23:05:47.213Z,88.40
2018-02-09T23:08:14.733Z,88.80
2018-02-09T23:10:42.279Z,88.90
2018-02-09T23:13:09.779Z,88.70
2018-02-09T23:15:37.296Z,88.50
2018-02-09T23:18:04.808Z,88.80
2018-02-09T23:20:32.368Z,88.90
2018-02-09T23:22:59.848Z,88.90
2018-02-09T23:25:28.133Z,88.60
2018-02-09T23:27:56.426Z,88.70
2018-02-09T23:30:23.924Z,88.60
2018-02-09T23:32:51.471Z,88.80
2018-02-09T23:35:18.974Z,89.20
2018-02-09T23:37:47.273Z,88.80
2018-02-09T23:40:14.798Z,89.30
2018-02-09T23:42:42.296Z,88.60
2018-02-09T23:45:09.823Z,88.10
2018-02-09T23:47:38.119Z,87.60
2018-02-09T23:50:06.412Z,87.00
2018-02-09T23:52:33.927Z,87.00
2018-02-09T23:55:01.481Z,87.00
2018-02-09T23:57:29.004Z,86.60
2018-02-09T23:59:56.541Z,86.80
